LIRF Airport Information

Runway Information
Runway 07 Length 10849 ft width 148 ft
Elevation 7 ft Threshold 1365 ft Heading 70
Runway 25 Length 10849 ft Width 148 ft
Elevation 7 ft Threshold 0 ft Heading 250
Runway 16C Length 11818 ft width 148 ft
Elevation 11 ft Threshold 0 ft Heading 163
Runway 34C Length 11818 ft Width 148 ft
Elevation 4 ft Threshold 0 ft Heading 343
Runway 16L Length 12795 ft width 197 ft
Elevation 14 ft Threshold 0 ft Heading 163
Runway 34R Length 12795 ft Width 197 ft
Elevation 7 ft Threshold 0 ft Heading 343
Runway 16R Length 12795 ft width 197 ft
Elevation 7 ft Threshold 0 ft Heading 163
Runway 34L Length 12795 ft Width 197 ft
Elevation 8 ft Threshold 1053 ft Heading 343
Airport Frequencies
Type ARR Name ROMA DIREC Frequency 119.2 MHZ
Type ATIS Name ATIS Frequency 114.9 MHZ
Type CLD Name FIUME RAMP Frequency 121.725 MHZ
Type GND Name FIUME GND/ Frequency 121.8 MHZ
Type TWR Name FIUME TWR Frequency 118.7 MHZ
Airport Navaids
Type NDB Name Fiumicino Frequency 354 KHZ
Type NDB Name Fiumicino Frequency 421 KHZ
Type NDB Name Fiumicino Frequency 345 KHZ
Type VOR-DME Name Ostia Frequency 114900 KHZ
Type NDB Name Ostia Frequency 321 KHZ
Airport Weather Information & NOTAM
ADDS - METARS form results

(2027 UTC 20 July 2019)
Data provider http://aviationweather.gov/metar/data/
 
METAR text: LIRF 202020Z 30003KT CAVOK 23/21 Q1019 NOSIG
Conditions at: LIRF (ROME/FIUMICINO , IT) observed 2020 UTC 20 July 2019
Temperature: 23.0°C (73°F)
Dewpoint: 21.0°C (70°F) [RH = 89%]
Pressure (altimeter): 30.09 inches Hg (1019.0 mb)
Winds: from the WNW (300 degrees) at 3 MPH (3 knots; 1.5 m/s)
Visibility: 6 or more miles (10+ km)
Ceiling: ceiling and visibility are OK
Clouds: unknown
Weather: no significant weather observed at this time

METAR text: LIRF 201950Z 29001KT CAVOK 23/21 Q1019 NOSIG
Conditions at: LIRF (ROME/FIUMICINO , IT) observed 1950 UTC 20 July 2019
Temperature: 23.0°C (73°F)
Dewpoint: 21.0°C (70°F) [RH = 89%]
Pressure (altimeter): 30.09 inches Hg (1019.0 mb)
Winds: from the WNW (290 degrees) at 1 MPH (1 knots; 0.5 m/s)
Visibility: 6 or more miles (10+ km)
Ceiling: ceiling and visibility are OK
Clouds: unknown
Weather: no significant weather observed at this time

Forecast for: LIRF (ROME/FIUMICINO , IT)
Text: TAF LIRF 201700Z 2018/2124 VRB05KT CAVOK
Forecast period: 1800 UTC 20 July 2019 to 0800 UTC 21 July 2019
Forecast type: FROM: standard forecast or significant change
Winds: variable direction winds at 6 MPH (5 knots; 2.6 m/s)
Visibility: 6 or more miles 10+ km)
Ceiling: unknown
Clouds: missing
Weather: NSW  (no significant weather)
Text: BECMG 2108/2110 29013KT
Forecast period: 0800 UTC 21 July 2019 to 0000 UTC 22 July 2019
Forecast type: BECOMING: Conditions expected to become as follows by 1000 UTC 21 July 2019
Winds: from the WNW (290 degrees) at 15 MPH (13 knots; 6.7 m/s)
Visibility: 6 or more miles 10+ km)
Ceiling: unknown
Clouds: missing
Weather: NSW  (no significant weather)